Time;durP1;ratioP1;P1;durP2;ratioP2;P2;SDS_P1;SDS_P2;PMS_P1;PMS_P2;Temp;Humidity;BMP_temperature;BMP_pressure;BME280_temperature;BME280_humidity;BME280_pressure;Samples;Min_cycle;Max_cycle;Signal;HPM_P1;HPM_P2
2023/12/13 00:04:20;;;;;;;1999.90;999.90;;;;;;;14.91;72.92;99510.00;10315043;28;20046;-64
2023/12/13 00:09:23;;;;;;;1999.90;999.90;;;;;;;14.96;73.69;99515.66;10299818;28;20113;-64
2023/12/13 00:14:25;;;;;;;1999.90;999.90;;;;;;;14.83;74.84;99502.00;10299681;28;20043;-64
2023/12/13 00:19:28;;;;;;;1999.90;999.90;;;;;;;14.68;73.56;99499.03;10299568;28;20469;-64
2023/12/13 00:24:30;;;;;;;1999.90;999.90;;;;;;;14.55;76.09;99503.75;10299253;28;20054;-64
2023/12/13 00:29:32;;;;;;;1999.90;999.90;;;;;;;13.73;78.80;99506.03;10299138;28;20111;-64
2023/12/13 00:34:35;;;;;;;1999.90;999.90;;;;;;;14.53;75.97;99509.16;10314059;28;20046;-64
2023/12/13 00:39:37;;;;;;;1999.90;999.90;;;;;;;14.51;76.38;99503.22;10298862;28;20109;-64
2023/12/13 00:44:40;;;;;;;1999.90;999.90;;;;;;;14.98;74.04;99511.06;10298571;28;20072;-64
2023/12/13 00:49:42;;;;;;;1999.90;999.90;;;;;;;14.67;75.40;99508.72;10298510;28;20078;-64
2023/12/13 00:54:44;;;;;;;1999.90;999.90;;;;;;;14.75;73.54;99513.25;10298079;28;20047;-64
2023/12/13 00:59:47;;;;;;;1999.90;999.90;;;;;;;14.72;73.51;99510.09;10298211;28;20051;-64
2023/12/13 01:04:49;;;;;;;1999.90;999.90;;;;;;;14.69;75.41;99513.81;10297739;28;20134;-64
2023/12/13 01:09:52;;;;;;;1999.90;999.90;;;;;;;14.79;75.00;99511.16;10312810;28;20051;-64
2023/12/13 01:14:54;;;;;;;1999.90;999.90;;;;;;;14.89;73.06;99504.03;10297664;28;20050;-64
2023/12/13 01:19:56;;;;;;;1999.90;999.90;;;;;;;14.28;74.47;99505.38;10297157;28;20505;-64
2023/12/13 01:25:01;;;;;;;1999.90;999.90;;;;;;;14.17;75.51;99502.91;10311519;28;20054;-64
2023/12/13 01:30:04;;;;;;;1999.90;999.90;;;;;;;14.29;74.83;99505.25;10311812;28;20050;-64
2023/12/13 01:35:07;;;;;;;1999.90;999.90;;;;;;;14.59;75.42;99507.78;10296742;28;20053;-65
2023/12/13 01:40:10;;;;;;;1999.90;999.90;;;;;;;14.42;73.72;99506.72;10296378;28;20495;-65
2023/12/13 01:45:12;;;;;;;1999.90;999.90;;;;;;;14.66;72.63;99514.97;10296163;28;20050;-64
2023/12/13 01:50:15;;;;;;;1999.90;999.90;;;;;;;14.09;74.74;99520.25;10296018;28;20411;-64
2023/12/13 01:55:17;;;;;;;1999.90;999.90;;;;;;;14.03;76.40;99512.91;10295864;28;20109;-64
2023/12/13 02:00:19;;;;;;;1999.90;999.90;;;;;;;13.41;76.78;99528.19;10295861;28;20054;-64
2023/12/13 02:05:26;;;;;;;1999.90;999.90;;;;;;;14.03;76.11;99528.69;10310423;28;20046;-64
2023/12/13 02:10:28;;;;;;;1999.90;999.90;;;;;;;13.54;76.25;99530.53;10295132;28;20054;-64
2023/12/13 02:15:35;;;;;;;1999.90;999.90;;;;;;;14.51;73.79;99526.94;10295096;28;20042;-64
2023/12/13 02:20:37;;;;;;;1999.90;999.90;;;;;;;14.01;75.96;99516.66;10309339;28;20061;-64
2023/12/13 02:25:58;;;;;;;1999.90;999.90;;;;;;;14.82;72.60;99516.94;10294534;28;20055;-64
2023/12/13 02:31:03;;;;;;;1999.90;999.90;;;;;;;14.49;73.27;99519.16;10309470;28;20130;-64
2023/12/13 02:36:06;;;;;;;1999.90;999.90;;;;;;;14.73;73.01;99514.41;10294412;28;20051;-64
2023/12/13 02:41:08;;;;;;;1999.90;999.90;;;;;;;14.71;72.27;99511.06;10309238;28;20053;-64
2023/12/13 02:46:11;;;;;;;1999.90;999.90;;;;;;;14.39;73.72;99505.22;10294092;28;20051;-64
2023/12/13 02:51:13;;;;;;;1999.90;999.90;;;;;;;14.67;72.99;99507.88;10294018;28;20129;-64
2023/12/13 02:56:15;;;;;;;1999.90;999.90;;;;;;;14.48;73.47;99506.13;10293741;28;20053;-64
2023/12/13 03:01:17;;;;;;;1999.90;999.90;;;;;;;13.40;79.00;99495.00;10293682;28;20061;-64
2023/12/13 03:06:20;;;;;;;1999.90;999.90;;;;;;;13.87;74.70;99491.59;10293627;28;20043;-64
2023/12/13 03:11:23;;;;;;;1999.90;999.90;;;;;;;13.99;77.90;99506.28;10293607;28;20402;-64
2023/12/13 03:16:25;;;;;;;1999.90;999.90;;;;;;;14.55;74.09;99506.41;10293432;28;20047;-64
2023/12/13 03:21:27;;;;;;;1999.90;999.90;;;;;;;14.72;74.70;99497.72;10308067;28;20515;-64
2023/12/13 03:26:30;;;;;;;1999.90;999.90;;;;;;;15.10;73.71;99497.69;10299785;28;20078;-64
2023/12/13 03:31:32;;;;;;;1999.90;999.90;;;;;;;13.97;78.93;99486.34;10316107;28;20050;-64
2023/12/13 03:36:35;;;;;;;1999.90;999.90;;;;;;;15.44;71.07;99479.38;10315933;28;20397;-64
2023/12/13 03:41:37;;;;;;;1999.90;999.90;;;;;;;15.62;70.65;99484.63;10301030;28;20057;-65
2023/12/13 03:46:39;;;;;;;1999.90;999.90;;;;;;;14.63;73.86;99483.66;10300953;28;20078;-64
2023/12/13 03:51:46;;;;;;;1999.90;999.90;;;;;;;15.08;73.65;99486.44;10300640;28;20062;-64
2023/12/13 03:56:48;;;;;;;1999.90;999.90;;;;;;;14.67;73.82;99474.47;10300555;28;20046;-64
2023/12/13 04:01:51;;;;;;;1999.90;999.90;;;;;;;14.76;75.47;99466.66;10300159;28;20521;-64
2023/12/13 04:06:53;;;;;;;1999.90;999.90;;;;;;;14.07;76.27;99466.94;10299885;28;20436;-64
2023/12/13 04:11:56;;;;;;;1999.90;999.90;;;;;;;14.85;74.21;99474.50;10300018;28;20093;-64
2023/12/13 04:16:59;;;;;;;1999.90;999.90;;;;;;;15.08;73.11;99466.19;10299446;28;20098;-64
2023/12/13 04:22:01;;;;;;;1999.90;999.90;;;;;;;14.57;74.28;99480.72;10299514;28;20134;-64
2023/12/13 04:27:04;;;;;;;1999.90;999.90;;;;;;;15.64;69.81;99460.75;10299195;28;20508;-64
2023/12/13 04:32:07;;;;;;;1999.90;999.90;;;;;;;14.97;73.88;99464.59;10299260;28;20079;-64
2023/12/13 04:37:10;;;;;;;1999.90;999.90;;;;;;;15.07;74.04;99459.25;10298535;28;20043;-64
2023/12/13 04:42:12;;;;;;;1999.90;999.90;;;;;;;14.79;73.85;99469.00;10298654;28;20450;-64
2023/12/13 04:47:15;;;;;;;1999.90;999.90;;;;;;;14.77;75.57;99470.97;10298380;28;20506;-64
2023/12/13 04:52:17;;;;;;;1999.90;999.90;;;;;;;15.17;73.73;99473.19;10298304;28;20481;-64
2023/12/13 04:57:20;;;;;;;1999.90;999.90;;;;;;;15.07;73.43;99464.53;10298211;28;20047;-64
2023/12/13 05:02:22;;;;;;;1999.90;999.90;;;;;;;14.95;74.26;99461.28;10297995;28;20046;-64
2023/12/13 05:07:27;;;;;;;1999.90;999.90;;;;;;;14.65;75.40;99462.44;10297796;28;20046;-64
2023/12/13 05:12:30;;;;;;;1999.90;999.90;;;;;;;15.00;74.45;99460.84;10297498;28;20134;-64
2023/12/13 05:17:32;;;;;;;1999.90;999.90;;;;;;;14.95;73.54;99452.56;10297203;28;20479;-65
2023/12/13 05:22:35;;;;;;;1999.90;999.90;;;;;;;14.74;75.86;99458.91;10297151;28;20079;-65
2023/12/13 05:27:38;;;;;;;1999.90;999.90;;;;;;;14.85;73.14;99450.78;10296965;28;20050;-65
2023/12/13 05:32:41;;;;;;;1999.90;999.90;;;;;;;15.76;69.84;99447.16;10296788;28;20517;-65
2023/12/13 05:37:43;;;;;;;1999.90;999.90;;;;;;;14.53;73.77;99448.59;10296541;28;20078;-65
2023/12/13 05:42:45;;;;;;;1999.90;999.90;;;;;;;15.02;72.34;99448.34;10311288;28;20487;-65
2023/12/13 05:47:48;;;;;;;1999.90;999.90;;;;;;;14.82;74.45;99456.34;10295615;28;20074;-65
2023/12/13 05:52:50;;;;;;;1999.90;999.90;;;;;;;15.17;73.44;99448.66;10295965;28;20526;-65
2023/12/13 05:57:53;;;;;;;1999.90;999.90;;;;;;;15.08;72.77;99458.28;10295811;28;20093;-65
2023/12/13 06:02:55;;;;;;;1999.90;999.90;;;;;;;14.94;74.03;99456.97;10310699;28;20085;-65
2023/12/13 06:07:58;;;;;;;1999.90;999.90;;;;;;;15.23;71.63;99464.69;10295440;28;20057;-64
2023/12/13 06:13:00;;;;;;;1999.90;999.90;;;;;;;15.02;73.06;99464.16;10295181;28;20520;-64
2023/12/13 06:18:03;;;;;;;1999.90;999.90;;;;;;;15.14;72.12;99462.13;10294951;28;20433;-64
2023/12/13 06:23:05;;;;;;;1999.90;999.90;;;;;;;15.26;71.54;99471.44;10294812;28;20059;-64
2023/12/13 06:28:08;;;;;;;1999.90;999.90;;;;;;;15.22;71.80;99470.09;10294750;28;20134;-64
2023/12/13 06:33:10;;;;;;;1999.90;999.90;;;;;;;14.93;72.69;99470.28;10294687;28;20138;-64
2023/12/13 06:38:12;;;;;;;1999.90;999.90;;;;;;;15.30;73.14;99469.34;10390219;22;20131;-64
2023/12/13 06:43:15;;;;;;;1999.90;999.90;;;;;;;15.13;72.67;99473.63;10498421;28;20055;-64
2023/12/13 06:48:17;;;;;;;1999.90;999.90;;;;;;;15.12;72.24;99477.25;10498355;28;20058;-64
2023/12/13 06:53:21;;;;;;;1999.90;999.90;;;;;;;14.86;73.17;99477.97;10498230;28;20048;-64
2023/12/13 06:58:23;;;;;;;1999.90;999.90;;;;;;;14.89;72.47;99474.22;10497937;28;20411;-64
2023/12/13 07:03:26;;;;;;;1999.90;999.90;;;;;;;15.47;70.93;99468.53;10498048;28;20044;-64
2023/12/13 07:08:28;;;;;;;1999.90;999.90;;;;;;;14.94;75.28;99478.06;10497856;28;20063;-64
2023/12/13 07:13:31;;;;;;;1999.90;999.90;;;;;;;15.19;72.54;99486.22;10497672;28;20472;-64
2023/12/13 07:18:33;;;;;;;1999.90;999.90;;;;;;;15.71;70.46;99486.34;10497593;28;20078;-64
2023/12/13 07:23:36;;;;;;;1999.90;999.90;;;;;;;15.63;69.96;99488.91;10497767;28;20098;-64
2023/12/13 07:28:39;;;;;;;1999.90;999.90;;;;;;;15.01;72.47;99492.31;10497375;28;20549;-64
2023/12/13 07:33:41;;;;;;;1999.90;999.90;;;;;;;15.82;69.86;99487.09;10497290;28;20056;-64
2023/12/13 07:38:45;;;;;;;1999.90;999.90;;;;;;;15.14;70.53;99483.22;10496995;28;20067;-65
2023/12/13 07:43:48;;;;;;;1999.90;999.90;;;;;;;15.54;71.02;99497.75;10496782;28;20128;-64
2023/12/13 07:48:51;;;;;;;1999.90;999.90;;;;;;;15.70;69.77;99491.78;10496872;28;20515;-64
2023/12/13 07:53:54;;;;;;;1999.90;999.90;;;;;;;15.58;71.65;99492.03;10496533;28;20083;-64
2023/12/13 07:58:56;;;;;;;1999.90;999.90;;;;;;;15.21;72.94;99505.34;10496647;28;20056;-64
2023/12/13 08:04:01;;;;;;;1999.90;999.90;;;;;;;15.15;73.20;99504.16;10479310;28;20462;-64
2023/12/13 08:09:09;;;;;;;1999.90;999.90;;;;;;;14.86;73.81;99497.25;10497540;28;20044;-64
2023/12/13 08:14:11;;;;;;;1999.90;999.90;;;;;;;15.45;71.91;99504.78;10504066;28;20072;-64
2023/12/13 08:19:13;;;;;;;1999.90;999.90;;;;;;;15.16;73.74;99510.25;10504033;28;20094;-64
2023/12/13 08:24:16;;;;;;;1999.90;999.90;;;;;;;15.39;71.46;99514.09;10502962;28;20404;-64
2023/12/13 08:29:18;;;;;;;1999.90;999.90;;;;;;;15.27;74.32;99517.94;10503581;28;20048;-64
2023/12/13 08:34:21;;;;;;;1999.90;999.90;;;;;;;15.60;72.48;99515.59;10503488;28;20080;-64
2023/12/13 08:39:23;;;;;;;1999.90;999.90;;;;;;;15.39;71.54;99514.09;10503093;28;20061;-64
2023/12/13 08:44:25;;;;;;;1999.90;999.90;;;;;;;15.87;72.12;99521.78;10501796;28;20049;-64
2023/12/13 08:49:28;;;;;;;1999.90;999.90;;;;;;;15.12;74.00;99532.63;10503006;28;20063;-64
2023/12/13 08:54:32;;;;;;;1999.90;999.90;;;;;;;15.40;74.39;99528.97;10502641;28;20079;-64
2023/12/13 08:59:34;;;;;;;1999.90;999.90;;;;;;;15.19;74.51;99528.41;10502647;28;20079;-64
2023/12/13 09:04:37;;;;;;;1999.90;999.90;;;;;;;14.95;75.39;99536.88;10502220;28;20045;-64
2023/12/13 09:09:40;;;;;;;1999.90;999.90;;;;;;;15.13;73.99;99539.53;10502135;28;20087;-64
2023/12/13 09:14:42;;;;;;;1999.90;999.90;;;;;;;15.14;74.52;99546.47;10501707;28;20487;-64
2023/12/13 09:19:44;;;;;;;1999.90;999.90;;;;;;;15.75;72.39;99540.53;10501456;28;20376;-64
2023/12/13 09:24:47;;;;;;;1999.90;999.90;;;;;;;15.97;70.82;99544.47;10500498;28;20419;-64
2023/12/13 09:29:49;;;;;;;1999.90;999.90;;;;;;;16.29;71.13;99544.84;10501169;28;20527;-64
2023/12/13 09:34:52;;;;;;;1999.90;999.90;;;;;;;15.75;71.19;99552.84;10501115;28;20138;-64
2023/12/13 09:39:54;;;;;;;1999.90;999.90;;;;;;;15.48;73.20;99559.03;10500718;28;20060;-64
2023/12/13 09:45:05;;;;;;;1999.90;999.90;;;;;;;15.60;71.20;99556.03;10499710;28;20060;-64
2023/12/13 09:50:11;;;;;;;1999.90;999.90;;;;;;;14.95;72.82;99571.97;10499332;28;20048;-64
2023/12/13 09:55:15;;;;;;;1999.90;999.90;;;;;;;16.10;69.52;99565.19;10498881;28;20041;-63
2023/12/13 10:00:18;;;;;;;1999.90;999.90;;;;;;;15.84;70.75;99577.53;10500169;28;20127;-63
2023/12/13 10:05:22;;;;;;;1999.90;999.90;;;;;;;15.07;74.07;99590.22;10499859;28;20128;-63
2023/12/13 10:10:25;;;;;;;1999.90;999.90;;;;;;;15.95;69.43;99590.47;10496664;28;20563;-63
2023/12/13 10:15:34;;;;;;;1999.90;999.90;;;;;;;15.93;70.31;99592.44;10494753;28;20097;-63
2023/12/13 10:20:36;;;;;;;1999.90;999.90;;;;;;;15.63;70.34;99601.53;10480286;28;20079;-63
2023/12/13 10:25:39;;;;;;;1999.90;999.90;;;;;;;15.84;70.09;99612.66;10492370;28;20111;-63
2023/12/13 10:30:42;;;;;;;1999.90;999.90;;;;;;;15.94;69.16;99602.03;10495377;28;20053;-63
2023/12/13 10:35:46;;;;;;;1999.90;999.90;;;;;;;15.42;73.19;99600.03;10494708;28;20045;-63
2023/12/13 10:40:49;;;;;;;1999.90;999.90;;;;;;;15.39;72.87;99605.59;10488223;28;20143;-63
2023/12/13 10:45:59;;;;;;;1999.90;999.90;;;;;;;15.56;72.73;99602.13;10491707;28;20063;-63
2023/12/13 10:51:02;;;;;;;1999.90;999.90;;;;;;;15.57;72.29;99595.88;10490109;28;20131;-63
2023/12/13 10:56:05;;;;;;;1999.90;999.90;;;;;;;15.70;72.38;99599.94;10487683;28;20094;-63
2023/12/13 11:01:07;;;;;;;1999.90;999.90;;;;;;;15.73;70.79;99604.94;10495277;28;20136;-63
2023/12/13 11:06:15;;;;;;;1999.90;999.90;;;;;;;16.31;71.23;99601.81;10492694;28;20510;-63
2023/12/13 11:11:18;;;;;;;1999.90;999.90;;;;;;;16.40;70.04;99601.88;10479856;28;20125;-63
2023/12/13 11:16:22;;;;;;;1999.90;999.90;;;;;;;16.49;70.51;99593.88;10496782;28;20041;-63
2023/12/13 11:21:26;;;;;;;1999.90;999.90;;;;;;;16.40;70.50;99602.69;10474297;28;20056;-63
2023/12/13 11:26:33;;;;;;;1999.90;999.90;;;;;;;16.55;70.62;99604.78;10485964;28;20048;-63
2023/12/13 11:31:36;;;;;;;1999.90;999.90;;;;;;;16.53;71.36;99610.22;10497120;28;20056;-63
2023/12/13 11:36:39;;;;;;;1999.90;999.90;;;;;;;17.22;70.36;99604.97;10496146;28;20075;-64
2023/12/13 11:41:41;;;;;;;1999.90;999.90;;;;;;;17.06;71.30;99611.88;10472384;28;20092;-63
2023/12/13 11:46:44;;;;;;;1999.90;999.90;;;;;;;17.39;70.31;99611.16;10459531;28;20500;-63
2023/12/13 11:51:47;;;;;;;1999.90;999.90;;;;;;;17.37;71.71;99611.31;10462477;28;20132;-63
2023/12/13 11:56:50;;;;;;;1999.90;999.90;;;;;;;17.60;69.61;99614.19;10463614;28;20045;-63
2023/12/13 12:01:52;;;;;;;1999.90;999.90;;;;;;;17.31;71.71;99614.59;10462070;28;20061;-64
2023/12/13 12:06:56;;;;;;;1999.90;999.90;;;;;;;17.46;71.48;99615.59;10463326;28;20052;-64
2023/12/13 12:11:59;;;;;;;1999.90;999.90;;;;;;;17.58;69.51;99624.06;10462996;28;20060;-64
2023/12/13 12:17:01;;;;;;;1999.90;999.90;;;;;;;17.32;70.90;99623.38;10462709;28;20440;-64
2023/12/13 12:22:04;;;;;;;1999.90;999.90;;;;;;;16.77;72.53;99627.22;10462701;28;20049;-64
2023/12/13 12:27:10;;;;;;;1999.90;999.90;;;;;;;16.42;72.65;99629.78;10462252;28;20045;-64
2023/12/13 12:32:13;;;;;;;1999.90;999.90;;;;;;;16.43;73.20;99635.91;10460923;28;20435;-63
2023/12/13 12:37:16;;;;;;;1999.90;999.90;;;;;;;16.98;71.53;99632.97;10456240;28;20120;-63
2023/12/13 12:42:19;;;;;;;1999.90;999.90;;;;;;;16.61;72.36;99630.56;10458540;28;20094;-63
2023/12/13 12:47:21;;;;;;;1999.90;999.90;;;;;;;16.69;72.85;99635.91;10456991;28;20124;-63
2023/12/13 12:52:24;;;;;;;1999.90;999.90;;;;;;;16.59;71.07;99636.00;10461299;28;20080;-63
2023/12/13 12:57:27;;;;;;;1999.90;999.90;;;;;;;16.50;72.65;99632.50;10461029;28;20072;-63
2023/12/13 13:02:29;;;;;;;1999.90;999.90;;;;;;;16.57;72.01;99650.38;10460497;28;20053;-63
2023/12/13 13:07:31;;;;;;;1999.90;999.90;;;;;;;15.92;75.84;99654.13;10460558;28;20045;-63
2023/12/13 13:12:38;;;;;;;1999.90;999.90;;;;;;;16.82;70.13;99652.19;10460925;28;20128;-63
2023/12/13 13:17:41;;;;;;;1999.90;999.90;;;;;;;16.41;71.85;99662.47;10459075;28;20482;-63
2023/12/13 13:22:44;;;;;;;1999.90;999.90;;;;;;;16.60;70.67;99674.66;10460240;28;20052;-63
2023/12/13 13:27:47;;;;;;;1999.90;999.90;;;;;;;16.98;69.77;99666.50;10458694;28;20041;-63
2023/12/13 13:32:50;;;;;;;1999.90;999.90;;;;;;;16.58;72.06;99667.91;10459867;28;20119;-63
2023/12/13 13:37:52;;;;;;;1999.90;999.90;;;;;;;16.31;72.62;99678.41;10459196;28;20092;-63
2023/12/13 13:42:55;;;;;;;1999.90;999.90;;;;;;;16.30;72.49;99675.94;10459284;28;20087;-63
2023/12/13 13:47:58;;;;;;;1999.90;999.90;;;;;;;16.34;71.55;99687.88;10459298;28;20087;-63
2023/12/13 13:53:00;;;;;;;1999.90;999.90;;;;;;;16.07;71.22;99686.97;10459067;28;20056;-63
2023/12/13 13:58:03;;;;;;;1999.90;999.90;;;;;;;15.81;72.33;99693.94;10458947;28;20132;-63
2023/12/13 14:03:06;;;;;;;1999.90;999.90;;;;;;;16.22;70.51;99700.44;10458421;28;20049;-63
2023/12/13 14:08:10;;;;;;;1999.90;999.90;;;;;;;15.54;70.68;99704.34;10456850;28;20041;-63
2023/12/13 14:13:13;;;;;;;1999.90;999.90;;;;;;;15.85;71.13;99713.78;10440723;28;20064;-63
2023/12/13 14:18:18;;;;;;;1999.90;999.90;;;;;;;15.39;72.51;99725.09;10458033;28;20049;-63
2023/12/13 14:23:21;;;;;;;1999.90;999.90;;;;;;;16.07;69.96;99726.56;10457892;28;20103;-63
2023/12/13 14:28:24;;;;;;;1999.90;999.90;;;;;;;16.16;68.75;99728.28;10457681;28;20131;-63
2023/12/13 14:33:28;;;;;;;1999.90;999.90;;;;;;;15.90;70.31;99736.13;10457267;28;20053;-63
2023/12/13 14:38:33;;;;;;;1999.90;999.90;;;;;;;15.95;69.75;99752.34;10456030;28;20049;-63
2023/12/13 14:43:35;;;;;;;1999.90;999.90;;;;;;;16.11;67.55;99750.84;10457254;28;20053;-63
2023/12/13 14:48:38;;;;;;;1999.90;999.90;;;;;;;15.92;69.04;99755.28;10455843;28;20080;-63
2023/12/13 14:53:41;;;;;;;1999.90;999.90;;;;;;;16.06;67.90;99767.13;10455710;28;20080;-63
2023/12/13 14:58:44;;;;;;;1999.90;999.90;;;;;;;15.78;68.78;99771.59;10456737;28;20048;-63
2023/12/13 15:03:46;;;;;;;1999.90;999.90;;;;;;;16.07;67.33;99781.16;10456552;28;20053;-63
2023/12/13 15:08:49;;;;;;;1999.90;999.90;;;;;;;16.38;66.36;99797.50;10456605;28;20500;-63
2023/12/13 15:13:51;;;;;;;1999.90;999.90;;;;;;;15.87;67.68;99798.91;10456269;28;20167;-63
2023/12/13 15:18:54;;;;;;;1999.90;999.90;;;;;;;15.73;68.96;99805.47;10458459;28;20480;-63
2023/12/13 15:23:56;;;;;;;1999.90;999.90;;;;;;;15.54;69.77;99822.22;10464702;28;20534;-63
2023/12/13 15:28:59;;;;;;;1999.90;999.90;;;;;;;15.56;68.84;99822.91;10465067;28;20061;-63
2023/12/13 15:34:02;;;;;;;1999.90;999.90;;;;;;;15.95;68.17;99830.69;10464427;28;20515;-63
2023/12/13 15:39:04;;;;;;;1999.90;999.90;;;;;;;15.66;68.86;99836.06;10463981;28;20064;-63
2023/12/13 15:44:07;;;;;;;1999.90;999.90;;;;;;;15.86;68.03;99840.31;10464253;28;20128;-63
2023/12/13 15:49:10;;;;;;;1999.90;999.90;;;;;;;15.29;70.41;99850.88;10464119;28;20080;-63
2023/12/13 15:54:12;;;;;;;1999.90;999.90;;;;;;;15.88;67.68;99854.19;10463694;28;20504;-63
2023/12/13 15:59:15;;;;;;;1999.90;999.90;;;;;;;15.54;68.90;99864.44;10463766;28;20040;-63
2023/12/13 16:04:17;;;;;;;1999.90;999.90;;;;;;;15.33;70.02;99872.50;10463566;28;20059;-63
2023/12/13 16:09:19;;;;;;;1999.90;999.90;;;;;;;15.52;69.13;99869.84;10463223;28;20140;-63
2023/12/13 16:14:24;;;;;;;1999.90;999.90;;;;;;;15.53;68.93;99879.44;10462893;28;20072;-63
2023/12/13 16:19:30;;;;;;;1999.90;999.90;;;;;;;15.29;69.36;99889.59;10462922;28;20060;-63
2023/12/13 16:24:32;;;;;;;1999.90;999.90;;;;;;;15.46;68.90;99898.59;10462557;28;20052;-63
2023/12/13 16:29:35;;;;;;;1999.90;999.90;;;;;;;15.48;67.99;99907.19;10461636;28;20393;-63
2023/12/13 16:34:37;;;;;;;1999.90;999.90;;;;;;;15.70;66.96;99908.69;10462171;28;20053;-63
2023/12/13 16:39:40;;;;;;;1999.90;999.90;;;;;;;15.28;67.81;99919.56;10461569;28;20057;-63
2023/12/13 16:44:42;;;;;;;1999.90;999.90;;;;;;;15.27;67.51;99923.19;10461873;28;20079;-63
2023/12/13 16:49:48;;;;;;;1999.90;999.90;;;;;;;15.21;68.02;99935.13;10461583;28;20135;-63
2023/12/13 16:54:50;;;;;;;1999.90;999.90;;;;;;;15.50;66.20;99944.81;10461459;28;20049;-63
2023/12/13 16:59:53;;;;;;;1999.90;999.90;;;;;;;15.35;67.58;99961.09;10461125;28;20059;-63
2023/12/13 17:04:55;;;;;;;1999.90;999.90;;;;;;;15.51;66.79;99957.88;10460913;28;20485;-63
2023/12/13 17:09:57;;;;;;;1999.90;999.90;;;;;;;15.46;66.94;99970.63;10461087;28;20132;-63
2023/12/13 17:15:01;;;;;;;1999.90;999.90;;;;;;;15.35;67.01;99976.09;10460437;28;20496;-63
2023/12/13 17:20:06;;;;;;;1999.90;999.90;;;;;;;15.51;66.66;99989.53;10459479;28;20049;-63
2023/12/13 17:25:09;;;;;;;1999.90;999.90;;;;;;;15.45;66.60;99999.78;10460088;28;20049;-63
2023/12/13 17:30:12;;;;;;;1999.90;999.90;;;;;;;15.38;67.16;100012.69;10460108;28;20049;-63
2023/12/13 17:35:20;;;;;;;1999.90;999.90;;;;;;;15.46;66.88;100012.84;10459798;28;20057;-63
2023/12/13 17:40:22;;;;;;;1999.90;999.90;;;;;;;15.57;66.76;100022.44;10459478;28;20135;-63
2023/12/13 17:45:26;;;;;;;1999.90;999.90;;;;;;;15.41;66.58;100026.44;10458540;28;20057;-63
2023/12/13 17:50:29;;;;;;;1999.90;999.90;;;;;;;15.55;65.94;100042.84;10458065;28;20076;-63
2023/12/13 17:55:32;;;;;;;1999.90;999.90;;;;;;;15.47;67.13;100058.53;10459187;28;20132;-63
2023/12/13 18:00:34;;;;;;;1999.90;999.90;;;;;;;15.44;66.87;100064.09;10458746;28;20049;-63
2023/12/13 18:05:36;;;;;;;1999.90;999.90;;;;;;;14.48;70.23;100083.72;10458832;28;20045;-63
2023/12/13 18:10:39;;;;;;;1999.90;999.90;;;;;;;15.49;67.95;100085.63;10458265;28;20484;-63
2023/12/13 18:15:41;;;;;;;1999.90;999.90;;;;;;;15.64;66.83;100083.41;10458187;28;20128;-63
2023/12/13 18:20:44;;;;;;;1999.90;999.90;;;;;;;15.77;66.17;100094.56;10458147;28;20073;-63
2023/12/13 18:25:48;;;;;;;1999.90;999.90;;;;;;;15.67;66.32;100098.94;10457876;28;20075;-63
2023/12/13 18:30:51;;;;;;;1999.90;999.90;;;;;;;15.52;66.26;100109.91;10457590;28;20057;-63
2023/12/13 18:35:56;;;;;;;1999.90;999.90;;;;;;;15.54;66.88;100120.34;10457321;28;20125;-63
2023/12/13 18:40:59;;;;;;;1999.90;999.90;;;;;;;15.88;66.20;100128.72;10457141;28;20075;-63
2023/12/13 18:46:02;;;;;;;1999.90;999.90;;;;;;;15.73;65.72;100136.16;10457097;28;20140;-63
2023/12/13 18:51:05;;;;;;;1999.90;999.90;;;;;;;15.83;66.32;100151.22;10470518;22;20118;-68
2023/12/13 18:56:07;;;;;;;1999.90;999.90;;;;;;;15.94;66.10;100156.38;10373236;28;20052;-68
2023/12/13 19:01:10;;;;;;;1999.90;999.90;;;;;;;15.73;67.13;100169.66;10373548;28;20050;-67
2023/12/13 19:06:12;;;;;;;1999.90;999.90;;;;;;;15.94;65.67;100174.84;10374775;28;20048;-68
2023/12/13 19:11:15;;;;;;;1999.90;999.90;;;;;;;15.75;66.75;100188.81;10374504;28;20060;-68
2023/12/13 19:16:17;;;;;;;1999.90;999.90;;;;;;;16.04;65.76;100196.81;10374172;28;20396;-68
2023/12/13 19:21:19;;;;;;;1999.90;999.90;;;;;;;15.72;67.49;100213.69;10373283;28;20142;-68
2023/12/13 19:26:22;;;;;;;1999.90;999.90;;;;;;;15.59;67.45;100219.19;10374152;28;20046;-68
2023/12/13 19:31:24;;;;;;;1999.90;999.90;;;;;;;16.05;65.75;100221.41;10374366;28;20069;-68
2023/12/13 19:36:27;;;;;;;1999.90;999.90;;;;;;;16.14;66.14;100215.31;10374231;28;20080;-68
2023/12/13 19:41:29;;;;;;;1999.90;999.90;;;;;;;15.96;66.39;100234.47;10373840;28;20473;-68
2023/12/13 19:46:31;;;;;;;1999.90;999.90;;;;;;;15.86;67.96;100251.25;10372777;28;20125;-68
2023/12/13 19:51:34;;;;;;;1999.90;999.90;;;;;;;15.90;67.38;100250.88;10373444;28;20057;-68
2023/12/13 19:56:36;;;;;;;1999.90;999.90;;;;;;;16.13;65.93;100263.81;10373525;28;20050;-67
2023/12/13 20:01:39;;;;;;;1999.90;999.90;;;;;;;15.76;67.10;100273.16;10373498;28;20400;-68
2023/12/13 20:06:41;;;;;;;1999.90;999.90;;;;;;;15.57;67.96;100281.00;10376639;28;20054;-68
2023/12/13 20:11:44;;;;;;;1999.90;999.90;;;;;;;16.15;66.85;100288.25;10380986;28;20052;-68
2023/12/13 20:16:46;;;;;;;1999.90;999.90;;;;;;;15.81;67.54;100306.25;10379672;28;20046;-67
2023/12/13 20:21:49;;;;;;;1999.90;999.90;;;;;;;15.83;68.35;100309.59;10379497;28;20054;-68
2023/12/13 20:26:51;;;;;;;1999.90;999.90;;;;;;;15.48;69.81;100314.28;10379621;28;20111;-67
2023/12/13 20:31:54;;;;;;;1999.90;999.90;;;;;;;15.20;72.00;100326.34;10380379;28;20045;-68
2023/12/13 20:36:56;;;;;;;1999.90;999.90;;;;;;;15.30;72.72;100334.31;10379871;28;20058;-67
2023/12/13 20:41:58;;;;;;;1999.90;999.90;;;;;;;15.94;69.33;100347.28;10380060;28;20055;-68
2023/12/13 20:47:02;;;;;;;1999.90;999.90;;;;;;;15.41;70.39;100347.44;10379646;28;20149;-67
2023/12/13 20:52:06;;;;;;;1999.90;999.90;;;;;;;15.58;70.61;100360.03;10378473;28;20132;-68
2023/12/13 20:57:08;;;;;;;1999.90;999.90;;;;;;;16.11;68.05;100374.03;10378352;28;20060;-68
2023/12/13 21:02:10;;;;;;;1999.90;999.90;;;;;;;15.07;72.58;100383.72;10378952;28;20555;-67
2023/12/13 21:07:14;;;;;;;1999.90;999.90;;;;;;;14.89;73.37;100400.06;10378805;28;20396;-68
2023/12/13 21:12:16;;;;;;;1999.90;999.90;;;;;;;14.16;74.11;100417.34;10378578;28;20172;-67
2023/12/13 21:17:18;;;;;;;1999.90;999.90;;;;;;;14.00;75.76;100429.03;10377032;28;20404;-67
2023/12/13 21:22:21;;;;;;;1999.90;999.90;;;;;;;13.99;76.46;100435.28;10378378;28;20060;-68
2023/12/13 21:27:23;;;;;;;1999.90;999.90;;;;;;;13.93;77.12;100443.63;10377975;28;20524;-67
2023/12/13 21:32:26;;;;;;;1999.90;999.90;;;;;;;13.54;76.96;100451.81;10377705;28;20053;-67
2023/12/13 21:37:29;;;;;;;1999.90;999.90;;;;;;;13.56;76.05;100460.41;10376450;28;20128;-67
2023/12/13 21:42:31;;;;;;;1999.90;999.90;;;;;;;14.31;73.29;100472.25;10376159;28;20636;-67
2023/12/13 21:47:36;;;;;;;1999.90;999.90;;;;;;;13.66;74.99;100494.78;10376133;28;20056;-67
2023/12/13 21:52:39;;;;;;;1999.90;999.90;;;;;;;14.23;71.69;100505.41;10377089;28;20054;-67
2023/12/13 21:57:41;;;;;;;1999.90;999.90;;;;;;;14.18;72.82;100518.91;10376823;28;20049;-67
2023/12/13 22:02:43;;;;;;;1999.90;999.90;;;;;;;13.65;74.87;100522.03;10376545;28;20050;-67
2023/12/13 22:07:46;;;;;;;1999.90;999.90;;;;;;;14.01;72.65;100533.38;10376375;28;20052;-67